Time;durP1;ratioP1;P1;durP2;ratioP2;P2;SDS_P1;SDS_P2;PMS_P1;PMS_P2;Temp;Humidity;BMP_temperature;BMP_pressure;BME280_temperature;BME280_humidity;BME280_pressure;Samples;Min_cycle;Max_cycle;Signal;HPM_P1;HPM_P2
2022/04/24 00:00:08;;;;;;;3.60;1.08;;;;;;;21.47;30.10;101899.44;4989341;28;20113;-76
2022/04/24 00:02:37;;;;;;;1.45;0.68;;;;;;;21.49;31.33;101900.31;4988168;28;20101;-79
2022/04/24 00:05:06;;;;;;;1.52;0.60;;;;;;;21.45;29.60;101886.25;4988658;28;20051;-81
2022/04/24 00:07:35;;;;;;;2.78;0.85;;;;;;;21.57;30.11;101895.94;4988863;28;20503;-79
2022/04/24 00:10:06;;;;;;;2.42;0.95;;;;;;;21.63;31.90;101893.31;4988935;28;20057;-80
2022/04/24 00:12:34;;;;;;;2.97;1.15;;;;;;;21.64;30.65;101883.66;4988606;28;20527;-81
2022/04/24 00:15:03;;;;;;;2.58;0.70;;;;;;;21.62;30.24;101878.38;4989221;28;20054;-80
2022/04/24 00:17:31;;;;;;;1.70;0.70;;;;;;;21.61;27.49;101876.63;4989263;28;20062;-80
2022/04/24 00:20:00;;;;;;;4.32;0.65;;;;;;;21.53;30.54;101875.72;4989425;28;20133;-81
2022/04/24 00:22:28;;;;;;;1.05;0.60;;;;;;;21.53;29.08;101881.00;4988737;28;20101;-79
2022/04/24 00:24:57;;;;;;;2.22;0.88;;;;;;;21.44;30.99;101873.97;4989252;28;20082;-79
2022/04/24 00:27:27;;;;;;;2.45;0.60;;;;;;;21.41;29.04;101878.34;4988502;28;20519;-79
2022/04/24 00:29:55;;;;;;;1.60;0.93;;;;;;;21.28;30.18;101870.41;4989361;28;20050;-80
2022/04/24 00:32:23;;;;;;;1.70;0.80;;;;;;;21.28;29.58;101880.03;4994446;28;20089;-80
2022/04/24 00:34:52;;;;;;;3.08;0.80;;;;;;;21.17;29.61;101871.25;4993670;28;20046;-80
2022/04/24 00:37:20;;;;;;;1.10;0.70;;;;;;;21.07;28.47;101865.94;4982090;28;20051;-79
2022/04/24 00:39:49;;;;;;;2.00;0.85;;;;;;;20.96;28.84;101864.13;4973641;28;20055;-77
2022/04/24 00:42:18;;;;;;;1.83;0.73;;;;;;;20.78;30.19;101868.44;4972941;28;20079;-79
2022/04/24 00:44:48;;;;;;;1.02;0.63;;;;;;;20.64;27.90;101857.84;4973157;28;20567;-79
2022/04/24 00:47:19;;;;;;;2.58;1.00;;;;;;;20.58;29.06;101860.44;4972722;28;20141;-83
2022/04/24 00:49:47;;;;;;;3.72;0.90;;;;;;;20.55;29.21;101839.34;4973097;28;20125;-80
2022/04/24 00:52:16;;;;;;;2.70;1.00;;;;;;;20.52;31.33;101844.56;4973019;28;20503;-79
2022/04/24 00:54:45;;;;;;;1.63;1.00;;;;;;;20.43;30.65;101844.53;4973148;28;20101;-78
2022/04/24 00:57:14;;;;;;;2.17;0.93;;;;;;;20.33;30.19;101840.09;4972603;28;20109;-79
2022/04/24 00:59:43;;;;;;;3.47;0.80;;;;;;;20.28;31.43;101840.94;4972797;28;20134;-76
2022/04/24 01:02:13;;;;;;;1.80;0.75;;;;;;;20.20;33.49;101840.03;4972486;28;20090;-77
2022/04/24 01:04:42;;;;;;;1.65;0.60;;;;;;;20.14;31.17;101839.09;4972518;28;20114;-76
2022/04/24 01:07:10;;;;;;;1.77;0.77;;;;;;;20.08;32.01;101834.66;4972421;28;20559;-75
2022/04/24 01:09:39;;;;;;;2.60;0.80;;;;;;;19.97;33.97;101838.94;4972747;28;20051;-76
2022/04/24 01:12:09;;;;;;;1.30;0.63;;;;;;;19.89;33.36;101844.16;4972431;28;20051;-76
2022/04/24 01:14:38;;;;;;;1.63;0.70;;;;;;;19.75;31.97;101838.78;4972132;28;20086;-76
2022/04/24 01:17:08;;;;;;;1.27;0.50;;;;;;;19.64;32.99;101837.78;4986785;28;20061;-76
2022/04/24 01:19:38;;;;;;;2.63;0.70;;;;;;;19.55;33.99;101845.56;4991840;28;20492;-76
2022/04/24 01:22:08;;;;;;;1.90;0.65;;;;;;;19.44;32.87;101841.06;4991471;28;20101;-76
2022/04/24 01:24:36;;;;;;;2.03;0.60;;;;;;;19.35;31.46;101824.34;4993068;28;20047;-77
2022/04/24 01:27:05;;;;;;;2.03;0.85;;;;;;;19.34;32.39;101836.59;4994215;28;20129;-75
2022/04/24 01:29:34;;;;;;;1.02;0.60;;;;;;;19.31;31.98;101836.56;4992247;28;20050;-75
2022/04/24 01:32:02;;;;;;;2.35;0.60;;;;;;;19.28;31.66;101836.53;4991785;28;20058;-74
2022/04/24 01:34:31;;;;;;;1.52;0.60;;;;;;;19.25;33.13;101836.50;4991177;28;20130;-79
2022/04/24 01:36:59;;;;;;;1.45;0.70;;;;;;;19.24;32.94;101834.72;4991794;28;20488;-77
2022/04/24 01:39:29;;;;;;;1.10;0.55;;;;;;;19.22;34.06;101833.84;4991840;28;20089;-77
2022/04/24 01:41:58;;;;;;;2.00;0.75;;;;;;;19.18;33.53;101834.69;4991459;28;20054;-75
2022/04/24 01:44:26;;;;;;;1.75;0.50;;;;;;;19.15;32.96;101825.03;4991285;28;20054;-73
2022/04/24 01:46:55;;;;;;;0.90;0.40;;;;;;;19.12;32.63;101819.72;4991162;28;20055;-75
2022/04/24 01:49:23;;;;;;;2.45;0.70;;;;;;;19.09;32.25;101818.84;4991116;28;20492;-75
2022/04/24 01:51:52;;;;;;;1.35;0.40;;;;;;;19.01;33.23;101817.00;4990823;28;20094;-75
2022/04/24 01:54:20;;;;;;;1.10;0.40;;;;;;;18.99;32.52;101817.84;4991384;28;20077;-80
2022/04/24 01:56:50;;;;;;;0.93;0.43;;;;;;;18.96;32.81;101813.41;4991612;28;20105;-79
2022/04/24 01:59:19;;;;;;;1.13;0.40;;;;;;;18.89;32.75;101806.34;4991441;28;20531;-73
2022/04/24 02:01:48;;;;;;;1.77;0.60;;;;;;;18.86;32.55;101811.56;4990893;28;20344;-74
2022/04/24 02:04:16;;;;;;;1.27;0.55;;;;;;;18.79;32.65;101804.50;4991202;28;20054;-75
2022/04/24 02:06:44;;;;;;;1.17;0.50;;;;;;;18.75;33.32;101807.91;4990587;28;20089;-76
2022/04/24 02:09:13;;;;;;;1.42;0.60;;;;;;;18.69;33.21;101802.56;4971295;28;20097;-76
2022/04/24 02:11:41;;;;;;;1.55;0.57;;;;;;;18.66;33.82;101800.78;4988234;28;20107;-74
2022/04/24 02:14:11;;;;;;;2.10;0.68;;;;;;;18.61;33.89;101792.00;4990534;28;20108;-77
2022/04/24 02:16:40;;;;;;;1.77;1.00;;;;;;;18.58;35.64;101798.06;4990398;28;20134;-77
2022/04/24 02:19:08;;;;;;;1.77;0.70;;;;;;;18.56;35.20;101797.19;4993706;28;20551;-76
2022/04/24 02:21:37;;;;;;;2.00;0.70;;;;;;;18.52;35.28;101797.13;4991028;28;20058;-77
2022/04/24 02:24:06;;;;;;;2.03;0.60;;;;;;;18.48;35.85;101798.81;4990724;28;20393;-80
2022/04/24 02:26:34;;;;;;;1.83;0.95;;;;;;;18.43;35.94;101800.47;4990226;28;20055;-77
2022/04/24 02:29:03;;;;;;;0.90;0.60;;;;;;;18.37;36.33;101800.38;4990029;28;20133;-77
2022/04/24 02:31:33;;;;;;;1.67;0.80;;;;;;;18.24;36.53;101788.88;4990567;28;20484;-76
2022/04/24 02:34:01;;;;;;;2.28;0.90;;;;;;;18.24;37.06;101798.47;4990192;28;20050;-78
2022/04/24 02:36:30;;;;;;;1.98;0.80;;;;;;;18.20;37.21;101808.88;4989897;28;20112;-76
2022/04/24 02:38:58;;;;;;;2.30;0.82;;;;;;;18.15;38.18;101809.69;4990059;28;20089;-80
2022/04/24 02:41:28;;;;;;;1.95;0.60;;;;;;;18.06;38.90;101805.19;4989451;28;20181;-79
2022/04/24 02:43:56;;;;;;;1.45;0.60;;;;;;;17.97;39.27;101808.53;4990205;28;20050;-76
2022/04/24 02:46:25;;;;;;;2.08;0.55;;;;;;;17.85;39.25;101810.09;4989861;28;20082;-81
2022/04/24 02:48:55;;;;;;;0.95;0.60;;;;;;;17.76;38.87;101809.03;4990145;28;20050;-78
2022/04/24 02:51:24;;;;;;;1.88;0.70;;;;;;;17.70;40.01;101814.16;4990234;28;20077;-79
2022/04/24 02:53:52;;;;;;;1.42;0.57;;;;;;;17.64;40.23;101810.56;4989760;28;20050;-76
2022/04/24 02:56:20;;;;;;;3.47;0.70;;;;;;;17.56;39.33;101813.94;4990065;28;20054;-81
2022/04/24 02:58:49;;;;;;;1.00;0.60;;;;;;;17.51;38.69;101819.94;4990067;28;20523;-76
2022/04/24 03:01:18;;;;;;;2.58;0.98;;;;;;;17.44;39.42;101823.31;4989733;28;20108;-77
2022/04/24 03:03:46;;;;;;;2.60;0.80;;;;;;;17.34;39.06;101823.16;4989766;28;20051;-76
2022/04/24 03:06:17;;;;;;;2.22;0.80;;;;;;;17.27;39.17;101821.28;4989276;28;20543;-76
2022/04/24 03:08:46;;;;;;;1.90;0.77;;;;;;;17.18;40.10;101821.09;4989531;28;20354;-76
2022/04/24 03:11:15;;;;;;;1.35;0.63;;;;;;;17.10;41.89;101817.44;4990151;28;20053;-76
2022/04/24 03:13:43;;;;;;;9.90;5.80;;;;;;;17.01;42.71;101822.47;4992725;28;20598;-76
2022/04/24 03:16:12;;;;;;;3.55;1.38;;;;;;;16.84;41.34;101819.53;4989571;28;20561;-76
2022/04/24 03:18:40;;;;;;;3.00;1.50;;;;;;;16.73;41.76;101827.09;4989801;28;20729;-76
2022/04/24 03:21:08;;;;;;;3.47;1.05;;;;;;;16.64;41.05;101829.53;4989795;28;20054;-76
2022/04/24 03:23:39;;;;;;;1.60;1.00;;;;;;;16.57;41.66;101832.84;4989229;28;20089;-75
2022/04/24 03:26:07;;;;;;;1.58;0.93;;;;;;;16.49;42.33;101841.41;4990129;28;20112;-77
2022/04/24 03:28:36;;;;;;;2.78;1.33;;;;;;;16.43;42.68;101843.00;4989462;28;20112;-76
2022/04/24 03:31:04;;;;;;;1.92;1.13;;;;;;;16.34;42.75;101843.66;4989666;28;20042;-76
2022/04/24 03:33:33;;;;;;;2.53;1.42;;;;;;;16.25;44.59;101846.06;4988803;28;20046;-76
2022/04/24 03:36:01;;;;;;;4.00;1.67;;;;;;;16.17;44.92;101851.13;4989384;28;20484;-76
2022/04/24 03:38:29;;;;;;;3.60;1.83;;;;;;;16.05;45.18;101843.84;4988844;28;20587;-77
2022/04/24 03:41:01;;;;;;;3.75;1.90;;;;;;;15.90;45.15;101846.97;4989116;28;20104;-77
2022/04/24 03:43:29;;;;;;;6.43;2.20;;;;;;;15.76;46.06;101844.84;4988855;28;20050;-76
2022/04/24 03:45:58;;;;;;;5.35;2.35;;;;;;;15.63;48.10;101841.91;4989129;28;20108;-77
2022/04/24 03:48:26;;;;;;;4.25;2.05;;;;;;;15.56;48.48;101849.53;4988636;28;20066;-77
2022/04/24 03:50:55;;;;;;;5.55;2.70;;;;;;;15.47;48.74;101844.94;4989217;28;20077;-77
2022/04/24 03:53:23;;;;;;;6.13;2.90;;;;;;;15.39;49.75;101846.44;4988617;28;20046;-77
2022/04/24 03:56:07;;;;;;;7.35;2.95;;;;;;;15.30;49.79;101847.06;4989168;28;20049;-77
2022/04/24 03:58:35;;;;;;;6.57;2.47;;;;;;;15.22;50.64;101849.47;4989325;28;20078;-78
2022/04/24 04:01:04;;;;;;;6.22;2.60;;;;;;;15.15;51.20;101852.75;4989143;28;20050;-78
2022/04/24 04:03:32;;;;;;;5.25;2.05;;;;;;;15.07;51.38;101849.03;4988501;28;20078;-77
2022/04/24 04:06:00;;;;;;;3.38;1.95;;;;;;;14.98;51.69;101848.78;4989536;28;20054;-78
2022/04/24 04:08:29;;;;;;;6.18;1.95;;;;;;;14.90;51.08;101855.50;4995607;28;20058;-78
2022/04/24 04:10:59;;;;;;;5.47;1.75;;;;;;;14.75;51.38;101849.00;4992818;28;20134;-77
2022/04/24 04:13:28;;;;;;;4.05;1.77;;;;;;;14.72;51.98;101854.09;4992887;28;20058;-78
2022/04/24 04:15:56;;;;;;;4.18;1.70;;;;;;;14.65;52.11;101854.75;4992670;28;20054;-77
2022/04/24 04:18:25;;;;;;;4.72;1.48;;;;;;;14.56;51.66;101849.28;4993476;28;20050;-78
2022/04/24 04:20:54;;;;;;;5.28;1.83;;;;;;;14.49;52.17;101850.78;4992710;28;20124;-78
2022/04/24 04:23:22;;;;;;;4.68;1.63;;;;;;;14.40;52.38;101851.38;4992253;28;20058;-78
2022/04/24 04:25:51;;;;;;;5.13;1.80;;;;;;;14.33;52.53;101851.13;4992997;28;20100;-78
2022/04/24 04:28:21;;;;;;;3.17;1.88;;;;;;;14.25;52.13;101856.09;4992661;28;20050;-78
2022/04/24 04:30:49;;;;;;;3.17;1.73;;;;;;;14.17;52.38;101849.75;4992722;28;20054;-77
2022/04/24 04:33:18;;;;;;;4.43;1.80;;;;;;;14.10;53.44;101856.47;4992495;28;20516;-78
2022/04/24 04:35:46;;;;;;;4.63;1.92;;;;;;;14.00;54.67;101851.81;4992614;28;20171;-77
2022/04/24 04:38:15;;;;;;;5.07;1.88;;;;;;;13.92;55.03;101854.16;4992474;28;20053;-78
2022/04/24 04:40:44;;;;;;;2.88;1.60;;;;;;;13.85;54.49;101857.38;4992463;28;20076;-77
2022/04/24 04:43:12;;;;;;;3.20;1.52;;;;;;;13.77;54.26;101851.06;4992520;28;20050;-77
2022/04/24 04:45:42;;;;;;;3.65;1.80;;;;;;;13.68;54.70;101848.16;4992295;28;20046;-77
2022/04/24 04:48:11;;;;;;;3.45;2.17;;;;;;;13.60;54.98;101856.53;4991993;28;20089;-77
2022/04/24 04:50:39;;;;;;;6.25;2.15;;;;;;;13.52;55.20;101851.94;4992397;28;20551;-77
2022/04/24 04:53:07;;;;;;;9.60;4.22;;;;;;;13.43;55.55;101846.41;4992325;28;20564;-77
2022/04/24 04:55:36;;;;;;;14.68;6.63;;;;;;;13.37;55.60;101852.25;4992101;28;20050;-77
2022/04/24 04:58:05;;;;;;;11.27;5.15;;;;;;;13.33;56.06;101850.38;4992344;28;20057;-77
2022/04/24 05:00:33;;;;;;;16.30;6.93;;;;;;;13.26;56.07;101848.34;4992034;28;20055;-77
2022/04/24 05:03:03;;;;;;;11.95;5.15;;;;;;;13.19;56.12;101853.34;4992590;28;20054;-76
2022/04/24 05:05:32;;;;;;;12.30;5.40;;;;;;;13.11;56.19;101848.69;4995373;28;20089;-75
2022/04/24 05:08:00;;;;;;;13.55;5.80;;;;;;;13.03;57.92;101856.19;4992764;28;20058;-76
2022/04/24 05:10:28;;;;;;;12.27;5.03;;;;;;;12.93;57.67;101859.28;4992067;28;20142;-77
2022/04/24 05:12:57;;;;;;;6.10;2.88;;;;;;;12.83;57.47;101865.84;4991605;28;20046;-76
2022/04/24 05:15:25;;;;;;;8.32;2.80;;;;;;;12.77;57.50;101863.91;4992061;28;20141;-76
2022/04/24 05:17:54;;;;;;;8.65;3.70;;;;;;;12.73;58.93;101863.72;4990855;28;20054;-76
2022/04/24 05:20:24;;;;;;;7.43;3.50;;;;;;;12.65;58.36;101853.06;4991177;28;20054;-77
2022/04/24 05:22:53;;;;;;;13.18;4.88;;;;;;;12.61;58.49;101861.53;4991251;28;20047;-78
2022/04/24 05:25:22;;;;;;;11.23;4.97;;;;;;;12.49;61.50;101863.66;4991980;28;20121;-78
2022/04/24 05:27:50;;;;;;;11.07;3.47;;;;;;;12.33;63.39;101857.88;4992046;28;20054;-77
2022/04/24 05:30:19;;;;;;;7.50;3.70;;;;;;;12.25;64.18;101868.75;4991765;28;20512;-81
2022/04/24 05:32:50;;;;;;;6.88;3.28;;;;;;;12.19;66.06;101865.94;4991585;28;20054;-78
2022/04/24 05:35:18;;;;;;;6.97;2.70;;;;;;;12.13;65.79;101861.34;4991544;28;20061;-79
2022/04/24 05:37:49;;;;;;;5.25;2.83;;;;;;;12.07;64.23;101854.22;4991604;28;20089;-79
2022/04/24 05:40:17;;;;;;;6.30;3.42;;;;;;;12.02;64.16;101854.84;4991180;28;20050;-78
2022/04/24 05:42:51;;;;;;;8.35;2.97;;;;;;;11.95;64.00;101857.16;4991215;28;20055;-80
2022/04/24 05:45:22;;;;;;;7.05;2.90;;;;;;;11.89;63.09;101859.53;4991925;28;20097;-79
2022/04/24 05:47:51;;;;;;;5.75;3.00;;;;;;;11.86;63.19;101861.06;4991412;28;20742;-78
2022/04/24 05:50:20;;;;;;;7.10;4.07;;;;;;;11.82;63.32;101870.44;4991605;28;20093;-80
2022/04/24 05:52:50;;;;;;;4.90;2.55;;;;;;;11.78;63.46;101867.66;4991080;28;20108;-80
2022/04/24 05:55:18;;;;;;;9.13;3.38;;;;;;;11.72;63.67;101868.25;4991863;28;20050;-80
2022/04/24 05:57:49;;;;;;;15.52;3.67;;;;;;;11.64;63.66;101861.88;4991324;28;20100;-79
2022/04/24 06:00:18;;;;;;;11.18;4.07;;;;;;;11.57;64.97;101858.13;4993350;28;20113;-79
2022/04/24 06:02:47;;;;;;;9.52;4.47;;;;;;;11.46;66.12;101849.88;4993622;28;20053;-80
2022/04/24 06:05:15;;;;;;;10.00;3.45;;;;;;;11.42;66.83;101853.16;4991695;28;20082;-79
2022/04/24 06:07:44;;;;;;;11.07;2.90;;;;;;;11.35;65.99;101851.13;4990923;28;20133;-80
2022/04/24 06:10:14;;;;;;;8.43;3.53;;;;;;;11.32;66.79;101851.00;4990781;28;20050;-80
2022/04/24 06:12:50;;;;;;;7.97;3.63;;;;;;;11.27;65.96;101852.47;4991002;28;20101;-79
2022/04/24 06:15:20;;;;;;;9.52;3.80;;;;;;;11.20;69.81;101853.03;4991305;28;20118;-80
2022/04/24 06:17:50;;;;;;;9.95;4.25;;;;;;;11.09;71.32;101840.50;4991537;28;20092;-77
2022/04/24 06:20:19;;;;;;;8.50;3.35;;;;;;;11.08;70.53;101843.91;4991278;28;20078;-78
2022/04/24 06:22:48;;;;;;;4.75;2.80;;;;;;;11.03;68.90;101840.22;4990329;28;20133;-79
2022/04/24 06:25:19;;;;;;;6.18;3.40;;;;;;;10.95;71.63;101832.91;4991074;28;20257;-80
2022/04/24 06:27:48;;;;;;;7.90;2.90;;;;;;;10.87;72.58;101838.63;4990335;28;20093;-80
2022/04/24 06:30:17;;;;;;;7.35;3.03;;;;;;;10.85;70.92;101837.69;4989736;28;20477;-80
2022/04/24 06:32:46;;;;;;;4.00;2.90;;;;;;;10.81;68.70;101834.88;4990711;28;20043;-79
2022/04/24 06:35:16;;;;;;;4.55;2.60;;;;;;;10.74;68.76;101832.84;4990783;28;20077;-79
2022/04/24 06:37:45;;;;;;;8.13;3.42;;;;;;;10.67;72.59;101840.34;4990533;28;20046;-80
2022/04/24 06:40:15;;;;;;;5.43;2.58;;;;;;;10.58;74.81;101837.31;4990715;28;20662;-79
2022/04/24 06:42:52;;;;;;;4.97;2.40;;;;;;;10.48;75.61;101835.09;4989946;28;20133;-80
2022/04/24 06:45:25;;;;;;;4.55;2.60;;;;;;;10.45;74.71;101834.97;4990151;28;20077;-79
2022/04/24 06:47:54;;;;;;;5.47;2.75;;;;;;;10.45;75.23;101842.72;4990688;28;20058;-80
2022/04/24 06:50:23;;;;;;;8.98;2.33;;;;;;;10.45;75.48;101837.56;4990437;28;20050;-79
2022/04/24 06:53:02;;;;;;;4.68;1.98;;;;;;;10.42;74.12;101833.13;4990398;28;20047;-78
2022/04/24 06:55:31;;;;;;;6.18;2.22;;;;;;;10.39;73.14;101830.38;4990221;28;20134;-79
2022/04/24 06:58:01;;;;;;;6.53;2.53;;;;;;;10.37;72.86;101833.69;4992056;28;20132;-80
2022/04/24 07:00:32;;;;;;;7.57;2.70;;;;;;;10.34;72.57;101826.69;4992423;28;20054;-80
2022/04/24 07:03:00;;;;;;;4.38;2.60;;;;;;;10.32;72.08;101827.44;4990242;28;20476;-80
2022/04/24 07:05:29;;;;;;;3.65;2.38;;;;;;;10.29;71.47;101827.28;4990766;28;20081;-79
2022/04/24 07:07:57;;;;;;;4.55;2.13;;;;;;;10.15;72.13;101814.53;4990081;28;20100;-80
2022/04/24 07:10:26;;;;;;;6.55;2.28;;;;;;;10.19;71.36;101825.91;4990078;28;20093;-79
2022/04/24 07:12:55;;;;;;;5.60;2.30;;;;;;;10.12;72.02;101834.19;4989352;28;20121;-79
2022/04/24 07:15:26;;;;;;;6.57;2.00;;;;;;;10.07;72.96;101836.56;4990193;28;20088;-80
2022/04/24 07:17:56;;;;;;;6.90;2.42;;;;;;;10.04;73.52;101831.25;4989096;28;20097;-80
2022/04/24 07:20:24;;;;;;;3.40;2.25;;;;;;;10.01;72.61;101831.06;4990036;28;20053;-80
2022/04/24 07:22:57;;;;;;;5.28;2.22;;;;;;;9.99;72.99;101832.72;4989403;28;20158;-80
2022/04/24 07:25:26;;;;;;;7.00;2.90;;;;;;;9.96;73.03;101828.25;4989552;28;20054;-79
2022/04/24 07:27:55;;;;;;;6.60;2.53;;;;;;;9.94;72.73;101829.00;4989813;28;20508;-79
2022/04/24 07:30:26;;;;;;;8.25;3.13;;;;;;;9.93;72.89;101829.81;4989529;28;20198;-77
2022/04/24 07:32:56;;;;;;;9.15;2.92;;;;;;;9.90;72.91;101827.09;4989323;28;20046;-79
2022/04/24 07:35:25;;;;;;;7.20;2.88;;;;;;;9.88;72.85;101823.56;4989307;28;20145;-80
2022/04/24 07:37:54;;;;;;;5.57;2.60;;;;;;;9.82;73.82;101825.00;4989696;28;20097;-79
2022/04/24 07:40:24;;;;;;;5.55;2.95;;;;;;;9.78;73.60;101825.69;4989098;28;20050;-80
2022/04/24 07:42:56;;;;;;;6.57;3.60;;;;;;;9.75;74.15;101832.38;4989038;28;20081;-79
2022/04/24 07:45:27;;;;;;;7.20;3.03;;;;;;;9.71;74.72;101826.19;4989341;28;20046;-79
2022/04/24 07:47:57;;;;;;;5.80;3.03;;;;;;;9.68;73.61;101818.25;4988942;28;20050;-79
2022/04/24 07:50:27;;;;;;;5.93;3.30;;;;;;;9.65;74.79;101818.13;4989441;28;20108;-77
2022/04/24 07:52:56;;;;;;;4.00;2.25;;;;;;;9.63;74.70;101822.31;4988933;28;20046;-78
2022/04/24 07:55:25;;;;;;;5.40;2.90;;;;;;;9.60;75.03;101829.94;4989953;28;20042;-79
2022/04/24 07:57:55;;;;;;;10.48;2.92;;;;;;;9.52;75.99;101824.34;4993051;28;20189;-80
2022/04/24 08:00:27;;;;;;;9.00;2.67;;;;;;;9.46;75.26;101821.47;4990218;28;20046;-80
2022/04/24 08:02:57;;;;;;;3.77;2.07;;;;;;;9.43;76.29;101821.28;4988833;28;20050;-81
2022/04/24 08:05:27;;;;;;;10.63;2.95;;;;;;;9.38;75.55;101822.75;4989357;28;20292;-79
2022/04/24 08:07:57;;;;;;;4.68;2.10;;;;;;;9.29;81.31;101827.47;4988678;28;20101;-80
2022/04/24 08:10:28;;;;;;;5.45;2.60;;;;;;;9.13;83.41;101820.59;4989009;28;20050;-80
2022/04/24 08:12:56;;;;;;;3.97;2.10;;;;;;;9.00;83.94;101812.22;4989189;28;20101;-79
2022/04/24 08:15:26;;;;;;;5.20;2.50;;;;;;;8.95;83.52;101816.22;4989404;28;20058;-80
2022/04/24 08:17:55;;;;;;;3.90;2.63;;;;;;;8.92;83.46;101816.09;4988482;28;20096;-80
2022/04/24 08:20:23;;;;;;;4.50;2.35;;;;;;;8.91;82.82;101806.59;4988933;28;20050;-80
2022/04/24 08:22:53;;;;;;;6.00;2.70;;;;;;;8.90;82.18;101806.50;4988399;28;20089;-80
2022/04/24 08:25:24;;;;;;;4.00;2.20;;;;;;;8.85;81.65;101802.78;4989528;28;20046;-80
2022/04/24 08:27:55;;;;;;;7.55;2.30;;;;;;;8.81;82.39;101801.72;4989095;28;20054;-80
2022/04/24 08:30:24;;;;;;;3.85;1.92;;;;;;;8.76;81.57;101795.44;4988533;28;20141;-80
2022/04/24 08:32:55;;;;;;;4.68;2.00;;;;;;;8.75;82.10;101798.81;4988725;28;20042;-79
2022/04/24 08:35:23;;;;;;;6.95;2.17;;;;;;;8.74;81.92;101803.06;4988049;28;20097;-78
2022/04/24 08:37:52;;;;;;;8.23;2.35;;;;;;;8.73;81.56;101805.59;4988252;28;20602;-80
2022/04/24 08:40:24;;;;;;;5.90;2.33;;;;;;;8.70;81.46;101813.16;4988708;28;20134;-79
2022/04/24 08:42:53;;;;;;;5.22;2.60;;;;;;;8.71;80.57;101813.25;4988005;28;20152;-77
2022/04/24 08:45:26;;;;;;;4.10;2.13;;;;;;;8.69;81.24;101803.66;4988098;28;20046;-76
2022/04/24 08:47:57;;;;;;;4.25;2.40;;;;;;;8.67;80.37;101805.25;4988331;28;20057;-78
2022/04/24 08:50:29;;;;;;;5.55;2.45;;;;;;;8.66;79.87;101808.63;4988793;28;20496;-77
2022/04/24 08:52:58;;;;;;;5.95;2.50;;;;;;;8.64;81.25;101805.09;4990032;28;20109;-78
2022/04/24 08:55:28;;;;;;;4.90;2.53;;;;;;;8.62;81.44;101802.44;4995491;28;20076;-79
2022/04/24 08:57:58;;;;;;;5.38;2.38;;;;;;;8.60;82.25;101794.59;4993310;28;20687;-78
2022/04/24 09:00:27;;;;;;;7.25;2.85;;;;;;;8.50;82.49;101781.16;4992684;28;20050;-77
2022/04/24 09:02:59;;;;;;;10.10;2.63;;;;;;;8.55;82.66;101790.00;4991920;28;20054;-76
2022/04/24 09:05:28;;;;;;;8.73;2.60;;;;;;;8.54;84.14;101786.56;4992342;28;20054;-77
2022/04/24 09:08:10;;;;;;;5.93;2.53;;;;;;;8.52;83.87;101785.56;4991651;28;20046;-79
2022/04/24 09:10:53;;;;;;;4.63;1.83;;;;;;;8.52;84.88;101784.66;4991767;28;20129;-78
2022/04/24 09:13:29;;;;;;;3.13;2.33;;;;;;;8.49;85.29;101790.53;4991997;28;20108;-78
2022/04/24 09:15:58;;;;;;;4.75;2.03;;;;;;;8.49;84.74;101781.94;4992447;28;20642;-78
2022/04/24 09:18:40;;;;;;;5.13;2.35;;;;;;;8.46;85.33;101780.06;4991559;28;20058;-78
2022/04/24 09:21:09;;;;;;;3.58;2.10;;;;;;;8.44;85.32;101779.09;4992078;28;20049;-80
2022/04/24 09:23:38;;;;;;;10.82;2.42;;;;;;;8.38;83.70;101778.72;4991461;28;20050;-80
2022/04/24 09:26:07;;;;;;;5.05;2.03;;;;;;;8.27;84.19;101764.34;4991545;28;20046;-78
2022/04/24 09:28:39;;;;;;;6.28;1.75;;;;;;;8.27;84.01;101772.09;4991136;28;20054;-79
2022/04/24 09:31:08;;;;;;;7.13;2.47;;;;;;;8.25;86.43;101778.88;4992054;28;20125;-78
2022/04/24 09:33:42;;;;;;;3.78;2.03;;;;;;;8.16;87.22;101769.81;4991536;28;20053;-78
2022/04/24 09:36:12;;;;;;;5.43;2.50;;;;;;;8.07;89.02;101764.16;4991424;28;20105;-78
2022/04/24 09:38:47;;;;;;;3.78;2.08;;;;;;;8.11;89.08;101767.81;4991565;28;20093;-80
2022/04/24 09:41:19;;;;;;;5.65;2.10;;;;;;;8.05;88.47;101770.03;4990644;28;20050;-77
2022/04/24 09:43:48;;;;;;;4.60;2.17;;;;;;;8.03;89.42;101774.19;4988964;28;20043;-79
2022/04/24 09:46:27;;;;;;;6.22;2.20;;;;;;;8.01;88.50;101780.97;4991217;28;20104;-79
2022/04/24 09:48:59;;;;;;;2.58;1.95;;;;;;;7.98;89.24;101784.25;4991494;28;20054;-79
2022/04/24 09:51:28;;;;;;;3.70;2.10;;;;;;;7.98;88.86;101784.25;4990713;28;20054;-80
2022/04/24 09:54:01;;;;;;;10.65;2.97;;;;;;;7.97;88.46;101788.53;4994017;28;20065;-79
2022/04/24 09:56:29;;;;;;;3.30;1.65;;;;;;;7.95;89.23;101782.41;4993257;28;20046;-78
2022/04/24 09:58:58;;;;;;;6.60;1.80;;;;;;;7.93;89.68;101777.97;4992446;28;20544;-79
2022/04/24 10:01:28;;;;;;;4.78;2.17;;;;;;;7.91;91.29;101782.13;4991222;28;20103;-79
2022/04/24 10:03:58;;;;;;;5.47;2.08;;;;;;;7.88;93.54;101779.38;4990940;28;20047;-79
2022/04/24 10:06:27;;;;;;;4.45;2.15;;;;;;;7.84;94.18;101775.75;4991411;28;20534;-79
2022/04/24 10:08:55;;;;;;;6.55;2.03;;;;;;;7.82;94.81;101773.88;4991021;28;20142;-79
2022/04/24 10:11:24;;;;;;;3.95;1.55;;;;;;;7.79;93.56;101771.13;4985723;28;20047;-79
2022/04/24 10:13:58;;;;;;;6.75;2.17;;;;;;;7.74;93.11;101770.84;4989635;28;20140;-79
2022/04/24 10:16:44;;;;;;;4.18;2.15;;;;;;;7.67;90.70;101769.66;4991014;28;20043;-77
2022/04/24 10:19:25;;;;;;;5.10;2.35;;;;;;;7.63;92.10;101769.34;4952362;29;20047;-78
2022/04/24 10:22:04;;;;;;;4.53;2.38;;;;;;;7.58;92.65;101763.06;4951964;29;20047;-78
2022/04/24 10:24:41;;;;;;;7.95;2.17;;;;;;;7.57;92.85;101772.47;4951629;29;20142;-78
2022/04/24 10:27:11;;;;;;;4.65;2.17;;;;;;;7.55;93.59;101766.34;4951720;29;20511;-79
2022/04/24 10:29:50;;;;;;;4.78;2.60;;;;;;;7.51;95.02;101762.72;4951884;29;20047;-78
2022/04/24 10:32:27;;;;;;;4.72;2.58;;;;;;;7.49;96.53;101760.81;4951865;29;20143;-78
2022/04/24 10:34:57;;;;;;;4.28;2.38;;;;;;;7.47;97.38;101767.59;4951691;29;20048;-79
2022/04/24 10:37:30;;;;;;;6.25;2.40;;;;;;;7.45;98.22;101758.91;4951195;29;20098;-79
2022/04/24 10:40:00;;;;;;;4.78;2.75;;;;;;;7.45;98.45;101756.31;4951445;29;20063;-78
2022/04/24 10:42:33;;;;;;;3.97;1.80;;;;;;;7.43;98.60;101752.75;4950987;29;20063;-79
2022/04/24 10:45:09;;;;;;;3.35;2.08;;;;;;;7.41;98.24;101754.34;4951271;29;20105;-78
2022/04/24 10:47:55;;;;;;;3.47;2.42;;;;;;;7.38;99.58;101756.78;4951592;29;20055;-78
2022/04/24 10:50:25;;;;;;;4.75;2.47;;;;;;;7.34;98.74;101755.69;4951511;28;20117;-78
2022/04/24 10:52:57;;;;;;;3.47;1.90;;;;;;;7.30;99.54;101743.44;4953537;29;20075;-78
2022/04/24 10:55:29;;;;;;;6.13;1.95;;;;;;;7.28;98.80;101745.00;4953649;29;20071;-78
2022/04/24 10:58:00;;;;;;;6.80;1.85;;;;;;;7.27;99.29;101749.28;4952301;29;20062;-78
2022/04/24 11:00:34;;;;;;;7.45;1.98;;;;;;;7.25;98.89;101743.16;4951434;29;20466;-78
2022/04/24 11:03:11;;;;;;;4.20;1.50;;;;;;;7.21;100.00;101728.31;4951127;29;20047;-79
2022/04/24 11:05:43;;;;;;;4.47;1.30;;;;;;;7.19;100.00;101735.06;4951168;29;20055;-78
2022/04/24 11:08:18;;;;;;;4.78;1.70;;;;;;;7.13;98.71;101734.72;4951134;29;20079;-78
2022/04/24 11:10:48;;;;;;;5.63;2.22;;;;;;;7.08;100.00;101737.03;4950558;29;20067;-77
2022/04/24 11:13:18;;;;;;;6.13;2.00;;;;;;;7.05;100.00;101723.97;4951156;28;20051;-77
2022/04/24 11:15:48;;;;;;;3.88;2.28;;;;;;;7.02;100.00;101721.22;4951002;28;20047;-77
2022/04/24 11:18:25;;;;;;;2.85;1.90;;;;;;;6.98;100.00;101724.38;4979874;28;20082;-77
2022/04/24 11:21:01;;;;;;;4.15;2.03;;;;;;;6.97;100.00;101729.47;4989576;28;20160;-77
2022/04/24 11:23:31;;;;;;;2.67;1.42;;;;;;;6.95;100.00;101723.34;4988838;28;20050;-76
2022/04/24 11:26:01;;;;;;;4.03;1.60;;;;;;;6.93;100.00;101726.69;4989941;28;20081;-77
2022/04/24 11:28:37;;;;;;;4.53;1.92;;;;;;;6.93;100.00;101730.97;4989681;28;20082;-76
2022/04/24 11:31:16;;;;;;;2.15;1.50;;;;;;;6.88;100.00;101722.97;4989570;28;20133;-77
2022/04/24 11:33:58;;;;;;;3.15;1.45;;;;;;;6.87;100.00;101725.44;4989847;28;20081;-76
2022/04/24 11:36:32;;;;;;;3.13;1.80;;;;;;;6.86;100.00;101729.69;4989487;28;20086;-77
2022/04/24 11:39:02;;;;;;;4.22;1.58;;;;;;;6.84;100.00;101726.16;4984877;28;20129;-77